Time;durP1;ratioP1;P1;durP2;ratioP2;P2;SDS_P1;SDS_P2;PMS_P1;PMS_P2;Temp;Humidity;BMP_temperature;BMP_pressure;BME280_temperature;BME280_humidity;BME280_pressure;Samples;Min_cycle;Max_cycle;Signal;HPM_P1;HPM_P2
2022/05/06 00:00:23;;;;;;;14.13;5.18;;;;;;;4.53;41.72;101074.34;5143857;27;20046;-82
2022/05/06 00:02:51;;;;;;;14.25;5.60;;;;;;;4.36;42.07;101033.03;5145894;27;20047;-81
2022/05/06 00:05:18;;;;;;;11.15;5.10;;;;;;;4.64;41.83;101094.72;5144345;27;20043;-81
2022/05/06 00:07:45;;;;;;;11.73;5.43;;;;;;;4.61;42.33;101089.41;5149052;27;20059;-80
2022/05/06 00:10:14;;;;;;;12.82;5.32;;;;;;;4.59;42.36;101082.41;5147817;27;20051;-81
2022/05/06 00:12:42;;;;;;;11.27;5.13;;;;;;;4.56;42.42;101080.56;5150154;27;20057;-79
2022/05/06 00:15:11;;;;;;;12.05;4.88;;;;;;;4.54;42.33;101084.78;5148677;27;20054;-81
2022/05/06 00:17:39;;;;;;;11.70;5.18;;;;;;;4.48;42.17;101076.72;5134259;27;20490;-81
2022/05/06 00:20:06;;;;;;;11.35;4.95;;;;;;;4.35;42.19;101045.91;5133081;27;20146;-80
2022/05/06 00:22:33;;;;;;;12.60;5.55;;;;;;;4.44;41.66;101074.78;5134001;27;20134;-80
2022/05/06 00:25:00;;;;;;;13.88;5.50;;;;;;;4.49;42.50;101079.34;5134295;27;20047;-81
2022/05/06 00:27:28;;;;;;;13.05;5.05;;;;;;;4.39;42.30;101064.22;5134282;27;20076;-81
2022/05/06 00:29:56;;;;;;;10.80;5.00;;;;;;;4.47;42.61;101093.03;5132619;27;20551;-80
2022/05/06 00:32:29;;;;;;;10.20;4.80;;;;;;;4.30;42.76;101049.16;5134212;27;20137;-80
2022/05/06 00:34:56;;;;;;;10.75;4.75;;;;;;;4.51;42.11;101100.13;5132658;27;20047;-80
2022/05/06 00:37:23;;;;;;;10.73;5.00;;;;;;;4.47;42.21;101072.34;5132840;27;20081;-81
2022/05/06 00:39:50;;;;;;;8.45;4.45;;;;;;;4.57;42.53;101086.59;5132694;27;20052;-80
2022/05/06 00:42:18;;;;;;;12.75;5.22;;;;;;;4.62;42.17;101095.47;5132479;27;20081;-82
2022/05/06 00:44:46;;;;;;;9.43;4.80;;;;;;;4.66;42.05;101097.38;5133720;27;20516;-81
2022/05/06 00:47:19;;;;;;;10.32;4.95;;;;;;;4.65;42.24;101083.56;5132878;27;20591;-81
2022/05/06 00:49:46;;;;;;;11.50;5.55;;;;;;;4.70;42.44;101086.38;5133665;27;20092;-81
2022/05/06 00:52:16;;;;;;;12.10;4.93;;;;;;;4.79;42.61;101106.63;5136529;27;20050;-82
2022/05/06 00:54:43;;;;;;;11.88;5.20;;;;;;;4.80;42.01;101087.69;5115968;28;20086;-83
2022/05/06 00:57:11;;;;;;;12.10;5.18;;;;;;;4.75;42.23;101079.69;5146068;27;20147;-81
2022/05/06 01:02:29;;;;;;;11.13;4.70;;;;;;;4.77;42.37;101098.75;5132647;28;20096;-82
2022/05/06 01:05:03;;;;;;;10.48;5.25;;;;;;;4.65;42.17;101069.75;5132853;28;20074;-80
2022/05/06 01:07:30;;;;;;;11.00;4.90;;;;;;;4.46;42.09;101031.75;5133402;27;20100;-82
2022/05/06 01:09:57;;;;;;;12.00;5.53;;;;;;;4.76;42.50;101086.66;5133625;27;20047;-81
2022/05/06 01:12:25;;;;;;;10.30;5.28;;;;;;;4.81;42.55;101086.84;5132322;28;20061;-82
2022/05/06 01:14:52;;;;;;;11.95;5.22;;;;;;;4.86;41.94;101088.84;5131929;28;20055;-82
2022/05/06 01:17:25;;;;;;;9.93;5.22;;;;;;;4.80;42.26;101077.34;5132381;28;20150;-81
2022/05/06 01:19:52;;;;;;;10.77;4.85;;;;;;;4.93;41.99;101090.03;5132077;28;20047;-80
2022/05/06 01:22:20;;;;;;;11.70;5.63;;;;;;;4.97;41.95;101098.78;5132993;28;20393;-80
2022/05/06 01:24:48;;;;;;;12.35;5.40;;;;;;;5.05;41.73;101112.97;5133060;27;20055;-82
2022/05/06 01:27:20;;;;;;;10.38;5.03;;;;;;;5.03;41.84;101084.41;5131961;28;20101;-82
2022/05/06 01:29:48;;;;;;;9.82;4.70;;;;;;;4.69;41.94;101041.47;5133172;27;20051;-80
2022/05/06 01:32:17;;;;;;;10.52;5.60;;;;;;;5.07;41.69;101080.28;5133304;27;20492;-82
2022/05/06 01:34:47;;;;;;;9.63;5.10;;;;;;;4.92;42.04;101050.25;5133327;27;20047;-81
2022/05/06 01:37:22;;;;;;;10.35;4.78;;;;;;;5.22;42.04;101103.38;5133411;28;20043;-81
2022/05/06 01:39:53;;;;;;;12.07;5.30;;;;;;;5.11;41.58;101084.78;5132980;28;20062;-80
2022/05/06 01:42:24;;;;;;;11.35;5.10;;;;;;;5.17;41.85;101072.09;5132845;27;20296;-81
2022/05/06 01:45:02;;;;;;;10.07;4.95;;;;;;;5.36;41.33;101116.97;5132461;28;20477;-81
2022/05/06 01:47:33;;;;;;;11.77;5.18;;;;;;;5.27;41.20;101084.66;5137908;28;20421;-80
2022/05/06 01:50:05;;;;;;;12.65;5.10;;;;;;;5.37;41.73;101095.41;5140559;28;20078;-80
2022/05/06 01:52:36;;;;;;;9.27;5.20;;;;;;;4.90;41.73;101017.38;5139441;28;20054;-80
2022/05/06 01:55:03;;;;;;;;;;;;;;;5.28;41.37;101099.38;5139513;28;20051;-81
2022/05/06 01:57:37;;;;;;;9.15;5.13;;;;;;;5.09;41.79;101048.44;5134478;28;20360;-82
2022/05/06 02:00:06;;;;;;;11.60;5.53;;;;;;;5.47;41.13;101098.47;5134997;27;20077;-81
2022/05/06 02:02:42;;;;;;;9.98;5.20;;;;;;;5.44;41.72;101090.59;5136990;27;20580;-80
2022/05/06 02:05:23;;;;;;;12.93;5.18;;;;;;;5.40;41.75;101087.75;5135718;27;20055;-80
2022/05/06 02:07:53;;;;;;;9.88;5.13;;;;;;;5.57;40.97;101109.22;5135429;27;20049;-81
2022/05/06 02:10:23;;;;;;;13.30;5.28;;;;;;;5.53;41.08;101111.72;5135297;27;20190;-83
2022/05/06 02:12:59;;;;;;;10.63;4.57;;;;;;;5.57;41.70;101104.97;5135757;27;20511;-83
2022/05/06 02:15:35;;;;;;;13.43;5.05;;;;;;;5.53;41.39;101098.75;5136886;27;20039;-81
2022/05/06 02:18:20;;;;;;;10.45;4.90;;;;;;;5.64;41.58;101121.66;5135870;27;20058;-84
2022/05/06 02:21:06;;;;;;;9.95;4.35;;;;;;;5.64;40.98;101100.94;5136379;27;20450;-82
2022/05/06 02:23:43;;;;;;;13.45;5.70;;;;;;;5.56;41.06;101095.41;5135792;27;20059;-81
2022/05/06 02:26:31;;;;;;;13.45;4.93;;;;;;;5.56;41.34;101090.22;5084346;27;20103;-81
2022/05/06 02:29:05;;;;;;;10.55;4.70;;;;;;;5.66;41.20;101104.47;5135243;27;20515;-82
2022/05/06 02:34:22;;;;;;;12.68;4.95;;;;;;;5.81;41.12;101118.09;5134955;27;20054;-82
2022/05/06 02:36:54;;;;;;;10.60;4.93;;;;;;;5.86;41.32;101126.06;5136562;27;20051;-80
2022/05/06 02:39:35;;;;;;;12.00;5.50;;;;;;;5.94;41.27;101127.28;5134521;27;20058;-80
2022/05/06 02:42:09;;;;;;;11.85;4.95;;;;;;;6.00;40.79;101130.16;5134518;27;20066;-82
2022/05/06 02:44:41;;;;;;;11.47;4.37;;;;;;;5.70;40.42;101057.09;5117422;27;20149;-80
2022/05/06 02:47:11;;;;;;;17.17;4.80;;;;;;;6.05;40.29;101112.19;5134966;27;20048;-81
2022/05/06 02:49:38;;;;;;;12.32;4.80;;;;;;;6.09;40.51;101127.94;5117618;27;20047;-81
2022/05/06 02:52:09;;;;;;;11.90;5.47;;;;;;;6.15;40.27;101125.59;5134439;27;20043;-81
2022/05/06 02:54:39;;;;;;;15.18;4.60;;;;;;;5.76;40.42;101059.94;5134422;27;20047;-81
2022/05/06 02:57:10;;;;;;;9.13;4.65;;;;;;;5.99;40.60;101102.44;5135471;27;20092;-82
2022/05/06 02:59:39;;;;;;;13.02;5.20;;;;;;;6.28;40.71;101137.38;5134487;27;20055;-81
2022/05/06 03:02:06;;;;;;;12.00;4.50;;;;;;;6.35;40.06;101136.78;5134114;27;20084;-83
2022/05/06 03:04:36;;;;;;;12.77;5.38;;;;;;;6.29;39.90;101109.72;5135494;27;20124;-81
2022/05/06 03:07:07;;;;;;;10.75;5.10;;;;;;;6.53;40.06;101133.16;5146413;27;20535;-80
2022/05/06 03:09:43;;;;;;;9.68;4.80;;;;;;;6.65;39.61;101125.88;5164335;27;20051;-80
2022/05/06 03:12:10;;;;;;;9.98;5.00;;;;;;;6.71;39.34;101140.78;5151398;27;20051;-82
2022/05/06 03:14:49;;;;;;;10.60;4.70;;;;;;;6.73;39.39;101128.75;5113774;28;20051;-81
2022/05/06 03:17:25;;;;;;;9.35;4.68;;;;;;;6.79;39.63;101143.69;5113611;28;20138;-81
2022/05/06 03:19:53;;;;;;;12.38;4.90;;;;;;;6.67;39.06;101095.66;5114815;28;20043;-81
2022/05/06 03:22:21;;;;;;;11.65;4.47;;;;;;;6.92;38.98;101140.75;5146691;27;20047;-80
2022/05/06 03:24:49;;;;;;;10.32;4.90;;;;;;;7.03;39.24;101154.16;5156019;27;20133;-81
2022/05/06 03:30:02;;;;;;;10.98;4.90;;;;;;;7.23;39.01;101144.50;5156925;27;20050;-81
2022/05/06 03:32:33;;;;;;;8.43;4.78;;;;;;;7.37;38.48;101154.56;5166567;27;20118;-79
2022/05/06 03:35:01;;;;;;;9.48;4.97;;;;;;;7.45;38.62;101143.59;5147084;27;20079;-81
2022/05/06 03:37:30;;;;;;;10.77;4.67;;;;;;;7.53;38.51;101161.25;5139381;27;20051;-80
2022/05/06 03:39:57;;;;;;;12.43;4.85;;;;;;;7.44;38.02;101090.69;5133792;27;20345;-81
2022/05/06 03:42:26;;;;;;;8.45;4.72;;;;;;;7.64;37.46;101099.22;5133108;27;20054;-80
2022/05/06 03:44:53;;;;;;;9.48;4.80;;;;;;;8.06;37.20;101150.06;5133461;27;20146;-81
2022/05/06 03:47:21;;;;;;;10.48;5.13;;;;;;;8.38;37.06;101145.94;5133400;27;20055;-82
2022/05/06 03:51:20;;;;;;;8.90;4.65;;;;;;;8.58;36.41;101142.28;5133470;27;20063;-81
2022/05/06 03:52:37;;;;;;;11.13;4.57;;;;;;;8.93;36.19;101165.97;5134076;27;20058;-79
2022/05/06 03:55:07;;;;;;;9.55;4.97;;;;;;;9.08;35.69;101147.28;5133921;27;20054;-80
2022/05/06 03:57:37;;;;;;;8.82;4.50;;;;;;;9.28;35.54;101149.59;5134772;27;20047;-82
2022/05/06 04:00:05;;;;;;;11.32;5.15;;;;;;;9.35;35.39;101147.19;5133774;27;20054;-86
2022/05/06 04:02:42;;;;;;;8.45;4.70;;;;;;;9.61;34.76;101140.13;5133496;27;20061;-82
2022/05/06 04:05:15;;;;;;;11.50;5.28;;;;;;;9.88;34.50;101131.28;5132096;27;20147;-83
2022/05/06 04:07:42;;;;;;;9.82;5.10;;;;;;;9.96;34.84;101142.81;5134451;27;20526;-80
2022/05/06 04:10:09;;;;;;;10.90;4.47;;;;;;;10.25;34.12;101145.28;5116712;27;20047;-84
2022/05/06 04:12:37;;;;;;;13.45;5.15;;;;;;;10.25;34.07;101117.41;5134778;27;20051;-81
2022/05/06 04:15:09;;;;;;;10.32;4.80;;;;;;;10.49;33.86;101158.06;5133301;27;20051;-81
2022/05/06 04:17:42;;;;;;;15.23;5.43;;;;;;;10.41;34.57;101154.38;5133210;27;20086;-83
2022/05/06 04:25:48;;;;;;;8.65;5.03;;;;;;;10.83;33.62;101154.53;5132524;27;20119;-82
2022/05/06 04:28:17;;;;;;;10.13;4.78;;;;;;;11.09;34.05;101143.78;5132736;27;20074;-83
2022/05/06 04:30:47;;;;;;;10.32;5.20;;;;;;;10.58;33.61;101017.22;5132409;27;20082;-84
2022/05/06 04:33:16;;;;;;;12.98;5.20;;;;;;;11.46;33.03;101128.84;5132145;27;20513;-84
2022/05/06 04:35:47;;;;;;;10.70;5.05;;;;;;;11.78;33.20;101150.41;5132658;27;20526;-80
2022/05/06 04:38:25;;;;;;;9.52;4.68;;;;;;;11.97;32.85;101159.50;5143406;27;20430;-82
2022/05/06 04:40:56;;;;;;;15.88;5.78;;;;;;;12.29;32.26;101152.22;5129463;27;20592;-81
2022/05/06 04:43:23;;;;;;;12.55;4.72;;;;;;;12.19;31.95;101149.41;5112386;28;20137;-83
2022/05/06 04:45:54;;;;;;;14.60;5.10;;;;;;;12.13;32.29;101134.50;5112242;28;20043;-81
2022/05/06 04:48:26;;;;;;;8.88;4.90;;;;;;;11.95;32.40;101150.75;5129481;27;20303;-83
2022/05/06 04:50:55;;;;;;;9.05;4.95;;;;;;;12.00;32.86;101163.91;5112403;28;20051;-81
2022/05/06 04:53:24;;;;;;;11.57;5.20;;;;;;;11.58;32.91;101089.84;5114951;28;20063;-81
2022/05/06 04:55:55;;;;;;;9.98;4.53;;;;;;;11.84;32.68;101131.31;5115626;28;20043;-79
2022/05/06 04:58:48;;;;;;;9.82;4.60;;;;;;;12.01;32.75;101137.78;5111689;28;20074;-81
2022/05/06 05:01:23;;;;;;;10.70;5.20;;;;;;;12.08;32.86;101123.91;5129544;28;20055;-81
2022/05/06 05:03:50;;;;;;;12.35;5.45;;;;;;;12.19;32.04;101108.38;5129166;28;20062;-81
2022/05/06 05:06:18;;;;;;;14.50;5.90;;;;;;;12.54;32.30;101151.75;5113221;28;20086;-80
2022/05/06 05:08:49;;;;;;;13.57;5.70;;;;;;;12.50;32.25;101145.59;5113212;28;20055;-82
2022/05/06 05:11:17;;;;;;;9.02;5.00;;;;;;;12.51;31.91;101142.09;5112519;28;20067;-81
2022/05/06 05:13:52;;;;;;;8.55;4.50;;;;;;;12.62;32.00;101126.53;5112600;28;20063;-80
2022/05/06 05:16:29;;;;;;;7.32;4.25;;;;;;;12.60;31.79;101162.31;5111579;28;20511;-81
2022/05/06 05:18:57;;;;;;;9.05;4.60;;;;;;;12.81;31.75;101152.16;5143096;27;20050;-82
2022/05/06 05:21:25;;;;;;;11.32;4.38;;;;;;;13.07;30.87;101131.53;5149588;27;20142;-85
2022/05/06 05:23:54;;;;;;;10.07;4.50;;;;;;;13.34;30.61;101147.69;5132131;28;20086;-80
2022/05/06 05:26:24;;;;;;;12.10;4.65;;;;;;;13.64;30.29;101147.16;5133106;28;20066;-84
2022/05/06 05:28:53;;;;;;;9.65;4.28;;;;;;;13.84;30.04;101113.22;5132272;28;20430;-83
2022/05/06 05:31:20;;;;;;;9.25;4.03;;;;;;;13.92;29.27;101111.56;5133178;27;20047;-83
2022/05/06 05:33:49;;;;;;;10.15;4.88;;;;;;;14.53;29.00;101142.72;5133504;27;20058;-81
2022/05/06 05:36:19;;;;;;;8.05;4.10;;;;;;;15.01;28.03;101150.94;5137511;27;20061;-82
2022/05/06 05:38:47;;;;;;;8.52;4.03;;;;;;;15.42;27.44;101151.16;5136545;27;20064;-82
2022/05/06 05:41:15;;;;;;;9.77;3.55;;;;;;;15.33;27.41;101136.19;5136350;27;20131;-82
2022/05/06 05:49:23;;;;;;;9.55;4.18;;;;;;;16.38;26.24;101102.16;5135987;27;20440;-82
2022/05/06 05:51:53;;;;;;;9.35;3.45;;;;;;;16.06;26.38;101100.41;5136244;27;20078;-82
2022/05/06 05:54:22;;;;;;;11.57;3.88;;;;;;;15.86;26.09;101100.38;5136259;27;20104;-82
2022/05/06 05:56:49;;;;;;;6.65;3.55;;;;;;;15.53;26.36;101130.13;5119405;27;20411;-81
2022/05/06 05:59:18;;;;;;;8.60;4.07;;;;;;;15.50;26.68;101141.53;5135876;27;20107;-80
2022/05/06 06:01:45;;;;;;;4.93;3.08;;;;;;;15.40;26.28;101147.66;5137043;27;20063;-81
2022/05/06 06:04:13;;;;;;;7.15;3.20;;;;;;;15.49;26.71;101136.28;5136748;27;20086;-81
2022/05/06 06:06:45;;;;;;;6.05;3.38;;;;;;;16.03;26.04;101153.13;5135731;27;20051;-81
2022/05/06 06:09:17;;;;;;;9.73;3.45;;;;;;;15.90;25.81;101102.16;5135711;27;20058;-82
2022/05/06 06:11:49;;;;;;;8.13;3.40;;;;;;;15.96;25.79;101144.31;5135705;27;20057;-81
2022/05/06 06:14:17;;;;;;;5.07;2.88;;;;;;;15.83;25.80;101142.56;5135665;27;20523;-82
2022/05/06 06:16:47;;;;;;;6.47;3.20;;;;;;;15.76;25.83;101138.13;5137393;27;20055;-81
2022/05/06 06:19:17;;;;;;;8.02;3.35;;;;;;;15.61;26.02;101096.78;5136674;27;20055;-82
2022/05/06 06:21:45;;;;;;;4.65;3.33;;;;;;;15.89;25.68;101118.81;5137893;27;20096;-83
2022/05/06 06:24:19;;;;;;;9.18;3.50;;;;;;;16.14;25.54;101114.47;5136128;27;20093;-83
2022/05/06 06:26:52;;;;;;;5.80;3.42;;;;;;;16.55;26.42;101139.06;5135736;27;20556;-83
2022/05/06 06:29:29;;;;;;;9.10;3.20;;;;;;;16.83;25.91;101137.31;5135049;27;20050;-81
2022/05/06 06:31:59;;;;;;;7.85;2.92;;;;;;;17.06;25.47;101118.78;5118627;27;20066;-80
2022/05/06 06:34:26;;;;;;;11.32;3.63;;;;;;;17.35;24.90;101089.59;5137253;27;20499;-82
2022/05/06 06:36:55;;;;;;;6.25;2.40;;;;;;;18.01;23.62;101106.84;5162449;27;20051;-82
2022/05/06 06:39:24;;;;;;;4.32;2.47;;;;;;;17.86;22.71;101125.44;5152111;27;20055;-83
2022/05/06 06:41:52;;;;;;;6.15;2.80;;;;;;;17.79;23.48;101130.75;5118081;27;20396;-81
2022/05/06 06:44:26;;;;;;;9.55;3.03;;;;;;;17.83;22.97;101054.09;5135453;27;20591;-83
2022/05/06 06:47:11;;;;;;;5.72;2.60;;;;;;;18.20;22.33;101121.66;5119885;27;20067;-81
2022/05/06 06:50:11;;;;;;;7.10;2.60;;;;;;;18.07;23.08;101117.38;5090204;27;20055;-81
2022/05/06 06:53:42;;;;;;;10.63;3.00;;;;;;;18.41;24.14;101117.06;5131151;27;20111;-82
2022/05/06 06:56:10;;;;;;;6.00;2.88;;;;;;;18.76;22.54;101129.09;5138905;27;20054;-82
2022/05/06 06:58:39;;;;;;;4.57;2.75;;;;;;;18.66;22.83;101138.03;5140052;27;20093;-81
2022/05/06 07:01:05;;;;;;;7.78;2.95;;;;;;;18.91;21.76;101126.31;5141063;27;20059;-81
2022/05/06 07:03:33;;;;;;;7.25;3.30;;;;;;;19.25;21.04;101115.31;5144883;27;20047;-79
2022/05/06 07:11:56;;;;;;;5.22;3.03;;;;;;;19.29;20.89;101121.47;5134410;27;20051;-81
2022/05/06 07:14:31;;;;;;;7.13;2.90;;;;;;;19.43;20.14;101109.78;5134178;27;20050;-81
2022/05/06 07:16:59;;;;;;;4.67;2.90;;;;;;;19.18;20.11;101085.38;5135487;27;20050;-82
2022/05/06 07:19:28;;;;;;;6.93;2.80;;;;;;;19.36;20.17;101117.81;5134706;27;20338;-81
2022/05/06 07:21:57;;;;;;;6.97;2.90;;;;;;;19.43;19.83;101083.28;5135628;27;20586;-81
2022/05/06 07:24:25;;;;;;;6.38;3.55;;;;;;;19.79;19.28;101104.03;5135805;27;20051;-82
2022/05/06 07:26:55;;;;;;;4.82;2.92;;;;;;;19.63;19.52;101104.19;5136122;27;20062;-82
2022/05/06 07:29:25;;;;;;;7.70;3.08;;;;;;;19.69;19.54;101105.91;5133895;27;20051;-80
2022/05/06 07:31:52;;;;;;;5.28;3.40;;;;;;;19.55;19.16;101084.91;5134333;27;20145;-82
2022/05/06 07:34:20;;;;;;;6.82;3.58;;;;;;;19.72;19.12;101115.59;5099548;27;20145;-81
2022/05/06 07:36:49;;;;;;;8.85;3.38;;;;;;;19.63;19.03;101082.13;5135510;27;20051;-82
2022/05/06 07:39:17;;;;;;;5.38;3.75;;;;;;;19.60;18.92;101104.25;5135246;27;20139;-80
2022/05/06 07:41:44;;;;;;;7.07;3.38;;;;;;;19.60;18.64;101103.41;5133342;27;20124;-81
2022/05/06 07:44:13;;;;;;;6.72;3.42;;;;;;;19.88;18.50;101093.28;5142657;27;20057;-81
2022/05/06 07:46:42;;;;;;;6.28;3.42;;;;;;;19.67;18.85;101098.88;5138139;27;20047;-81
2022/05/06 07:49:11;;;;;;;5.13;3.60;;;;;;;19.17;18.94;101083.66;5134829;27;20067;-80
2022/05/06 07:51:39;;;;;;;8.32;4.05;;;;;;;19.22;19.06;101097.69;5134568;27;20043;-81
2022/05/06 07:54:06;;;;;;;4.68;3.40;;;;;;;19.17;19.00;101098.66;5134902;27;20557;-80
2022/05/06 07:56:34;;;;;;;11.95;4.28;;;;;;;19.08;18.72;101067.88;5133434;27;20066;-79
2022/05/06 07:59:03;;;;;;;7.32;3.78;;;;;;;19.52;18.80;101092.00;5134657;27;20100;-80
2022/05/06 08:04:36;;;;;;;8.13;3.60;;;;;;;19.03;18.93;101049.38;5134814;27;20104;-79
2022/05/06 08:07:05;;;;;;;4.43;3.22;;;;;;;19.10;18.95;101095.22;5134830;27;20054;-79
2022/05/06 08:09:34;;;;;;;9.10;3.50;;;;;;;18.98;19.09;101098.88;5134150;27;20075;-79
2022/05/06 08:12:02;;;;;;;6.22;3.40;;;;;;;18.94;19.21;101072.47;5134742;27;20285;-81
2022/05/06 08:14:29;;;;;;;8.07;3.78;;;;;;;19.08;18.77;101086.41;5134617;27;20059;-80
2022/05/06 08:16:59;;;;;;;4.35;3.03;;;;;;;18.80;18.76;101047.03;5134327;27;20104;-80
2022/05/06 08:19:26;;;;;;;4.18;3.20;;;;;;;18.92;18.58;101080.41;5133830;27;20461;-80
2022/05/06 08:21:54;;;;;;;6.82;3.15;;;;;;;18.85;18.73;101076.09;5134484;27;20089;-79
2022/05/06 08:24:22;;;;;;;7.55;3.22;;;;;;;19.05;18.82;101078.50;5133155;27;20412;-80
2022/05/06 08:26:49;;;;;;;8.38;3.30;;;;;;;19.00;18.92;101056.50;5132965;27;20051;-80
2022/05/06 08:29:16;;;;;;;6.88;3.40;;;;;;;19.14;18.91;101072.19;5134341;27;20043;-79
2022/05/06 08:31:43;;;;;;;14.60;4.53;;;;;;;19.25;18.79;101057.03;5134165;27;20101;-80
2022/05/06 08:34:12;;;;;;;17.75;3.67;;;;;;;19.46;18.60;101057.66;5134345;27;20509;-79
2022/05/06 08:36:45;;;;;;;6.15;3.83;;;;;;;19.38;18.68;101053.34;5134336;27;20050;-82
2022/05/06 08:39:12;;;;;;;8.20;3.50;;;;;;;19.39;18.91;101064.81;5134355;27;20055;-80
2022/05/06 08:41:41;;;;;;;7.40;3.50;;;;;;;19.08;18.63;101029.91;5134859;27;20050;-80
2022/05/06 08:52:36;;;;;;;6.20;3.10;;;;;;;19.58;17.85;101052.19;5156396;27;20086;-79
2022/05/06 08:55:06;;;;;;;4.75;3.25;;;;;;;19.39;17.82;101041.84;5156824;27;20054;-80
2022/05/06 08:57:35;;;;;;;7.65;3.65;;;;;;;19.37;17.90;101009.19;5154961;27;20507;-79
2022/05/06 09:00:04;;;;;;;8.05;3.33;;;;;;;19.70;17.83;101049.34;5154860;27;20146;-80
2022/05/06 09:02:31;;;;;;;8.52;3.58;;;;;;;19.26;17.89;101020.84;5154519;27;20046;-80
2022/05/06 09:05:00;;;;;;;5.80;3.33;;;;;;;18.97;18.24;101056.53;5153579;27;20111;-80
2022/05/06 09:07:29;;;;;;;6.38;3.42;;;;;;;18.86;18.28;101046.06;5154013;27;20397;-80
2022/05/06 09:10:15;;;;;;;6.50;3.40;;;;;;;19.06;18.26;101044.94;5156070;27;20051;-81
2022/05/06 09:12:45;;;;;;;12.05;4.22;;;;;;;19.24;18.24;101056.16;5154923;27;20090;-80
2022/05/06 09:18:03;;;;;;;6.95;3.35;;;;;;;19.39;17.92;101056.88;5141456;27;20082;-79
2022/05/06 09:20:31;;;;;;;5.03;3.55;;;;;;;19.20;17.92;101045.66;5137982;27;20117;-79
2022/05/06 09:23:00;;;;;;;7.90;3.40;;;;;;;18.98;18.09;101058.28;5137832;27;20146;-80
2022/05/06 09:25:42;;;;;;;7.57;3.70;;;;;;;18.60;18.24;101015.44;5137612;27;20051;-79
2022/05/06 09:28:30;;;;;;;7.25;3.20;;;;;;;18.61;18.61;101053.41;5138103;27;20051;-81
2022/05/06 09:30:59;;;;;;;10.10;4.07;;;;;;;18.54;18.34;101012.00;5139773;27;20047;-82
2022/05/06 09:33:31;;;;;;;6.55;4.10;;;;;;;18.92;18.23;101010.72;5138767;27;20051;-81
2022/05/06 09:35:59;;;;;;;5.68;4.22;;;;;;;19.39;18.12;101033.88;5138575;27;20142;-80
2022/05/06 09:38:29;;;;;;;5.25;4.10;;;;;;;19.38;18.00;101031.25;5136917;27;20043;-83
2022/05/06 09:40:57;;;;;;;7.82;4.30;;;;;;;18.99;17.98;101042.41;5153792;27;20141;-79
2022/05/06 09:43:26;;;;;;;9.32;4.97;;;;;;;18.99;17.89;101030.91;5137889;27;20082;-80
2022/05/06 09:45:54;;;;;;;6.63;4.40;;;;;;;19.05;18.06;101056.44;5140483;27;20042;-79
2022/05/06 09:48:22;;;;;;;7.22;4.47;;;;;;;19.04;17.98;101007.91;5156003;27;20058;-80
2022/05/06 09:50:52;;;;;;;9.85;4.10;;;;;;;19.37;18.08;101025.09;5157660;27;20050;-79
2022/05/06 09:53:25;;;;;;;9.93;4.63;;;;;;;19.60;17.64;101037.13;5147597;27;20069;-80
2022/05/06 09:55:54;;;;;;;7.25;4.22;;;;;;;20.29;17.25;101024.53;5136599;27;20495;-79
2022/05/06 09:58:27;;;;;;;7.97;4.47;;;;;;;20.40;17.34;101031.38;5135876;27;20461;-80
2022/05/06 10:00:56;;;;;;;7.45;4.50;;;;;;;20.42;17.17;101018.09;5137095;27;20047;-80
2022/05/06 10:03:23;;;;;;;7.57;4.25;;;;;;;20.18;16.90;101032.69;5136952;27;20055;-79
2022/05/06 10:05:52;;;;;;;8.52;4.22;;;;;;;19.59;17.39;101016.81;5136861;27;20055;-79
2022/05/06 10:08:23;;;;;;;8.90;4.40;;;;;;;19.76;17.52;101028.06;5136886;27;20516;-79
2022/05/06 10:10:58;;;;;;;5.65;4.47;;;;;;;19.96;17.65;101001.22;5137109;27;20047;-79
2022/05/06 10:13:30;;;;;;;5.90;4.22;;;;;;;19.84;17.33;101012.91;5135570;27;20055;-80
2022/05/06 10:15:59;;;;;;;8.00;4.75;;;;;;;19.53;17.64;100993.97;5137027;27;20091;-79
2022/05/06 10:18:38;;;;;;;5.72;3.80;;;;;;;19.41;17.71;101010.91;5135015;27;20459;-80
2022/05/06 10:21:07;;;;;;;6.53;4.20;;;;;;;19.36;17.83;100999.50;5136732;27;20080;-81
2022/05/06 10:23:55;;;;;;;5.68;3.83;;;;;;;19.69;17.77;101005.19;5139691;27;20476;-80
2022/05/06 10:26:40;;;;;;;8.23;3.88;;;;;;;19.79;17.54;101011.25;5137702;27;20496;-81
2022/05/06 10:32:55;;;;;;;8.57;5.47;;;;;;;20.35;17.43;101006.72;5140354;27;20043;-81
2022/05/06 10:35:39;;;;;;;8.50;3.72;;;;;;;20.27;16.98;101007.75;5143550;27;20054;-81
2022/05/06 10:38:25;;;;;;;7.78;3.92;;;;;;;19.90;17.34;100972.16;5125347;27;20051;-79
2022/05/06 10:41:01;;;;;;;6.78;3.63;;;;;;;19.79;17.33;100990.91;5136307;27;20058;-79
2022/05/06 10:43:45;;;;;;;5.85;3.25;;;;;;;19.44;17.49;101002.03;5136080;27;20059;-80
2022/05/06 10:46:34;;;;;;;5.22;3.22;;;;;;;19.60;17.81;101000.03;5136080;27;20142;-82
2022/05/06 10:49:35;;;;;;;7.68;3.45;;;;;;;19.64;17.78;100991.13;5136104;27;20149;-79
2022/05/06 10:52:24;;;;;;;6.18;3.72;;;;;;;19.59;17.72;100999.13;5135553;27;20492;-80
2022/05/06 10:55:00;;;;;;;5.68;3.42;;;;;;;19.34;17.97;100958.06;5135097;27;20508;-81
2022/05/06 10:57:44;;;;;;;5.10;3.22;;;;;;;19.86;17.18;101001.41;5135999;27;20047;-81
2022/05/06 11:00:12;;;;;;;8.07;4.28;;;;;;;19.74;17.34;100945.03;5134809;27;20061;-79
2022/05/06 11:02:41;;;;;;;10.98;4.50;;;;;;;19.93;17.11;100997.75;5134796;27;20047;-79
2022/05/06 11:05:12;;;;;;;5.55;3.17;;;;;;;19.77;17.12;100982.09;5136551;27;20051;-81
2022/05/06 11:07:42;;;;;;;10.07;3.80;;;;;;;19.84;17.38;100990.84;5135809;27;20508;-79
2022/05/06 11:10:19;;;;;;;5.70;3.00;;;;;;;19.64;17.50;100991.13;5136599;27;20054;-80
2022/05/06 11:12:52;;;;;;;5.00;3.10;;;;;;;19.56;17.44;100967.41;5135704;27;20420;-79
2022/05/06 11:15:29;;;;;;;6.13;3.10;;;;;;;19.69;17.50;100980.47;5136308;27;20100;-81
2022/05/06 11:18:06;;;;;;;4.90;3.22;;;;;;;19.41;17.51;100979.09;5133861;27;20426;-80
2022/05/06 11:20:39;;;;;;;8.90;3.05;;;;;;;19.44;17.76;100962.28;5134871;27;20488;-80
2022/05/06 11:23:09;;;;;;;5.15;3.17;;;;;;;19.46;17.81;100994.94;5134286;27;20058;-80
2022/05/06 11:25:41;;;;;;;4.38;2.70;;;;;;;19.12;17.95;100973.38;5135336;27;20109;-80
2022/05/06 11:28:14;;;;;;;2.92;2.42;;;;;;;19.12;17.92;100979.56;5135152;27;20055;-79
2022/05/06 11:30:45;;;;;;;3.80;2.53;;;;;;;19.16;17.84;100965.34;5135147;27;20447;-80
2022/05/06 11:33:24;;;;;;;3.78;2.63;;;;;;;19.30;17.70;100929.84;5134683;27;20069;-79
2022/05/06 11:36:01;;;;;;;5.35;3.20;;;;;;;19.68;17.71;100938.94;5135162;27;20070;-80
2022/05/06 11:38:38;;;;;;;3.58;2.65;;;;;;;19.36;17.70;100974.75;5134697;27;20137;-79
2022/05/06 11:41:12;;;;;;;8.00;2.83;;;;;;;18.89;18.18;100918.09;5150341;27;20128;-80
2022/05/06 11:43:45;;;;;;;5.05;3.05;;;;;;;19.14;18.26;100969.78;5134956;27;20086;-79
2022/05/06 11:49:09;;;;;;;6.28;2.90;;;;;;;18.76;18.59;100936.75;5134533;27;20074;-80
2022/05/06 11:51:45;;;;;;;4.00;2.97;;;;;;;18.83;18.53;100964.06;5134626;27;20055;-81
2022/05/06 11:54:15;;;;;;;4.38;2.78;;;;;;;18.71;18.71;100945.66;5134586;27;20139;-81
2022/05/06 11:56:44;;;;;;;;;;;;;;;18.42;19.08;100952.19;5135338;27;20050;-80
2022/05/06 11:59:13;;;;;;;3.22;2.70;;;;;;;18.51;18.76;100960.00;5134521;27;20022;-80
2022/05/06 12:01:41;;;;;;;4.80;3.15;;;;;;;18.59;18.82;100931.69;5134478;27;20046;-80
2022/05/06 12:04:11;;;;;;;6.80;3.20;;;;;;;18.46;18.90;100895.69;5134863;27;20051;-80
2022/05/06 12:06:44;;;;;;;4.35;2.92;;;;;;;18.71;18.84;100945.66;5133105;27;20039;-80
2022/05/06 12:09:16;;;;;;;5.70;3.97;;;;;;;18.60;18.89;100908.75;5133736;27;20061;-80
2022/05/06 12:11:46;;;;;;;5.32;3.20;;;;;;;18.68;18.85;100945.69;5116661;27;20141;-80
2022/05/06 12:14:19;;;;;;;6.00;3.10;;;;;;;18.62;19.09;100926.34;5134415;27;20096;-80
2022/05/06 12:17:02;;;;;;;6.07;3.30;;;;;;;18.65;18.93;100920.16;5134528;27;20047;-79
2022/05/06 12:19:39;;;;;;;5.80;3.22;;;;;;;18.83;19.05;100925.22;5132512;27;20100;-79
2022/05/06 12:22:07;;;;;;;5.60;3.17;;;;;;;19.34;18.32;100916.53;5134422;27;20051;-80
2022/05/06 12:24:47;;;;;;;6.63;3.50;;;;;;;19.55;18.25;100910.00;5134343;27;20563;-80
2022/05/06 12:27:29;;;;;;;6.20;3.45;;;;;;;19.42;18.50;100925.25;5137337;27;20051;-80
2022/05/06 12:29:58;;;;;;;5.18;3.00;;;;;;;19.59;18.37;100911.69;5135879;27;20460;-80
2022/05/06 12:32:29;;;;;;;7.68;3.30;;;;;;;19.92;18.16;100892.56;5137164;27;20051;-81